createdAt,value
2018-12-20T00:02:28.309Z,99965.55
2018-12-20T00:05:00.083Z,99970.02
2018-12-20T00:07:31.715Z,99969.62
2018-12-20T00:10:04.056Z,99973.18
2018-12-20T00:12:35.805Z,99967.92
2018-12-20T00:15:07.897Z,99977.64
2018-12-20T00:17:44.282Z,99976.16
2018-12-20T00:20:15.855Z,99975.74
2018-12-20T00:22:48.085Z,99978.75
2018-12-20T00:25:20.233Z,99979.17
2018-12-20T00:27:52.956Z,99985.16
2018-12-20T00:30:24.582Z,99981.45
2018-12-20T00:32:56.258Z,99987.50
2018-12-20T00:35:28.281Z,99994.44
2018-12-20T00:37:59.864Z,99996.64
2018-12-20T00:40:31.683Z,100007.83
2018-12-20T00:43:03.450Z,100006.09
2018-12-20T00:45:36.068Z,100009.39
2018-12-20T00:48:09.194Z,100006.93
2018-12-20T00:50:41.028Z,100006.93
2018-12-20T00:53:12.967Z,100003.63
2018-12-20T00:55:44.857Z,100003.95
2018-12-20T00:58:16.642Z,100013.89
2018-12-20T01:00:48.415Z,100017.60
2018-12-20T01:03:20.291Z,100014.49
2018-12-20T01:05:52.010Z,100013.09
2018-12-20T01:08:23.798Z,100012.25
2018-12-20T01:10:55.747Z,100010.81
2018-12-20T01:13:27.990Z,100012.44
2018-12-20T01:16:00.190Z,100017.11
2018-12-20T01:18:31.700Z,100021.08
2018-12-20T01:21:03.789Z,100024.95
2018-12-20T01:23:36.082Z,100039.56
2018-12-20T01:26:08.403Z,100035.34
2018-12-20T01:28:39.976Z,100035.88
2018-12-20T01:31:12.021Z,100038.03
2018-12-20T01:36:14.350Z,100044.14
2018-12-20T01:38:46.382Z,100050.96
2018-12-20T01:41:18.431Z,100055.41
2018-12-20T01:43:50.451Z,100061.64
2018-12-20T01:46:23.342Z,100060.20
2018-12-20T01:48:55.653Z,100057.44
2018-12-20T01:51:27.603Z,100063.03
2018-12-20T01:53:59.474Z,100069.41
2018-12-20T01:56:31.218Z,100070.41
2018-12-20T01:59:03.394Z,100073.32
2018-12-20T02:01:35.145Z,100074.98
2018-12-20T02:04:07.233Z,100079.62
2018-12-20T02:06:39.702Z,100091.61
2018-12-20T02:09:11.668Z,100089.05
2018-12-20T02:11:43.944Z,100098.52
2018-12-20T02:14:15.622Z,100101.03
2018-12-20T02:16:47.872Z,100105.01
2018-12-20T02:19:19.735Z,100104.12
2018-12-20T02:21:52.057Z,100111.27
2018-12-20T02:24:24.187Z,100118.92
2018-12-20T02:26:56.303Z,100121.13
2018-12-20T02:29:43.595Z,100124.87
2018-12-20T02:32:15.925Z,100130.88
2018-12-20T02:34:47.524Z,100129.08
2018-12-20T02:37:19.209Z,100130.66
2018-12-20T02:39:51.408Z,100134.79
2018-12-20T02:42:23.599Z,100142.44
2018-12-20T02:44:56.126Z,100149.37
2018-12-20T02:47:30.929Z,100154.54
2018-12-20T02:50:02.462Z,100154.74
2018-12-20T02:52:34.784Z,100161.08
2018-12-20T02:55:06.462Z,100161.34
2018-12-20T02:57:38.038Z,100173.80
2018-12-20T03:00:09.890Z,100170.65
2018-12-20T03:02:41.995Z,100178.01
2018-12-20T03:05:13.442Z,100176.23
2018-12-20T03:07:45.102Z,100179.61
2018-12-20T03:10:16.709Z,100175.63
2018-12-20T03:12:48.652Z,100179.83
2018-12-20T03:15:20.596Z,100182.32
2018-12-20T03:17:52.785Z,100180.95
2018-12-20T03:20:24.911Z,100186.98
2018-12-20T03:22:56.665Z,100183.53
2018-12-20T03:25:28.727Z,100191.59
2018-12-20T03:28:00.557Z,100191.27
2018-12-20T03:30:32.052Z,100193.17
2018-12-20T03:33:03.620Z,100200.52
2018-12-20T03:35:35.442Z,100203.72
2018-12-20T03:38:07.202Z,100206.62
2018-12-20T03:40:38.677Z,100210.37
2018-12-20T03:43:10.274Z,100214.63
2018-12-20T03:45:41.829Z,100217.70
2018-12-20T03:48:14.023Z,100218.94
2018-12-20T03:50:45.733Z,100222.24
2018-12-20T03:53:18.435Z,100228.68
2018-12-20T03:55:50.492Z,100228.59
2018-12-20T03:58:22.155Z,100234.50
2018-12-20T04:00:53.839Z,100235.70
2018-12-20T04:03:26.162Z,100243.92
2018-12-20T04:06:02.567Z,100251.19
2018-12-20T04:08:37.322Z,100255.00
2018-12-20T04:11:08.806Z,100256.23
2018-12-20T04:13:40.521Z,100252.08
2018-12-20T04:16:12.810Z,100254.23
2018-12-20T04:18:44.876Z,100251.19
2018-12-20T04:21:17.143Z,100255.19
2018-12-20T04:23:49.044Z,100251.51
2018-12-20T04:26:20.546Z,100258.69
2018-12-20T04:28:57.245Z,100252.33
2018-12-20T04:31:29.469Z,100254.19
2018-12-20T04:34:01.107Z,100255.75
2018-12-20T04:36:32.895Z,100252.77
2018-12-20T04:39:05.494Z,100255.60
2018-12-20T04:41:37.489Z,100255.85
2018-12-20T04:44:11.852Z,100253.54
2018-12-20T04:46:43.933Z,100248.91
2018-12-20T04:49:16.133Z,100252.43
2018-12-20T04:51:47.845Z,100256.52
2018-12-20T04:54:19.660Z,100259.03
2018-12-20T04:56:51.206Z,100247.50
2018-12-20T04:59:23.103Z,100250.27
2018-12-20T05:01:54.869Z,100251.63
2018-12-20T05:04:26.687Z,100248.45
2018-12-20T05:06:58.553Z,100246.27
2018-12-20T05:09:29.980Z,100242.12
2018-12-20T05:12:01.580Z,100240.10
2018-12-20T05:14:33.724Z,100241.30
2018-12-20T05:17:05.995Z,100241.48
2018-12-20T05:19:38.215Z,100231.85
2018-12-20T05:22:10.320Z,100227.43
2018-12-20T05:24:42.057Z,100230.62
2018-12-20T05:27:13.604Z,100227.39
2018-12-20T05:29:45.533Z,100219.89
2018-12-20T05:32:17.294Z,100223.66
2018-12-20T05:34:48.993Z,100216.81
2018-12-20T05:37:21.104Z,100208.37
2018-12-20T05:39:57.917Z,100211.84
2018-12-20T05:42:29.866Z,100203.81
2018-12-20T05:45:01.742Z,100206.24
2018-12-20T05:47:33.845Z,100202.73
2018-12-20T05:50:06.246Z,100188.00
2018-12-20T05:52:37.750Z,100196.66
2018-12-20T05:55:09.618Z,100180.13
2018-12-20T05:57:41.912Z,100182.59
2018-12-20T06:00:14.186Z,100174.06
2018-12-20T06:02:46.498Z,100166.28
2018-12-20T06:05:18.386Z,100162.59
2018-12-20T06:07:50.592Z,100152.63
2018-12-20T06:10:22.200Z,100150.20
2018-12-20T06:12:54.113Z,100136.69
2018-12-20T06:15:26.129Z,100139.00
2018-12-20T06:17:57.683Z,100130.34
2018-12-20T06:20:29.987Z,100126.19
2018-12-20T06:23:02.224Z,100113.97
2018-12-20T06:25:33.995Z,100104.55
2018-12-20T06:28:06.270Z,100105.74
2018-12-20T06:30:37.923Z,100101.16
2018-12-20T06:33:10.179Z,100096.13
2018-12-20T06:35:42.270Z,100091.78
2018-12-20T06:38:13.849Z,100080.20
2018-12-20T06:40:45.659Z,100079.31
2018-12-20T06:43:17.360Z,100069.69
2018-12-20T06:45:48.973Z,100071.61
2018-12-20T06:48:20.857Z,100058.74
2018-12-20T06:50:53.571Z,100059.05
2018-12-20T06:53:25.441Z,100055.67
2018-12-20T06:55:57.275Z,100044.98
2018-12-20T06:58:30.408Z,100042.67
2018-12-20T07:01:03.660Z,100039.03
2018-12-20T07:03:35.799Z,100031.48
2018-12-20T07:06:08.753Z,100022.57
2018-12-20T07:08:40.530Z,100013.36
2018-12-20T07:11:12.887Z,100012.95
2018-12-20T07:13:44.600Z,100007.96
2018-12-20T07:16:16.312Z,100000.12
2018-12-20T07:18:47.887Z,99995.00
2018-12-20T07:21:20.418Z,99986.31
2018-12-20T07:23:52.009Z,99981.55
2018-12-20T07:26:24.135Z,99981.83
2018-12-20T07:28:56.080Z,99974.94
2018-12-20T07:31:29.049Z,99981.59
2018-12-20T07:34:00.820Z,99966.55
2018-12-20T07:36:32.278Z,99964.45
2018-12-20T07:39:03.663Z,99958.10
2018-12-20T07:41:35.194Z,99953.45
2018-12-20T07:44:06.834Z,99954.27
2018-12-20T07:46:38.492Z,99959.14
2018-12-20T07:49:09.846Z,99945.27
2018-12-20T07:51:42.315Z,99945.52
2018-12-20T07:54:13.783Z,99931.00
2018-12-20T07:56:45.808Z,99936.33
2018-12-20T07:59:23.489Z,99930.66
2018-12-20T08:01:50.962Z,99925.01
2018-12-20T08:04:22.435Z,99918.86
2018-12-20T08:06:54.265Z,99905.90
2018-12-20T08:09:25.884Z,99901.80
2018-12-20T08:11:57.792Z,99900.64
2018-12-20T08:14:29.265Z,99899.88
2018-12-20T08:17:00.910Z,99893.74
2018-12-20T08:19:36.172Z,99888.88
2018-12-20T08:22:09.853Z,99883.60
2018-12-20T08:24:41.523Z,99886.59
2018-12-20T08:27:13.876Z,99878.30
2018-12-20T08:29:47.269Z,99876.16
2018-12-20T08:32:19.051Z,99871.59
2018-12-20T08:34:50.470Z,99873.61
2018-12-20T08:37:21.935Z,99864.72
2018-12-20T08:39:53.509Z,99871.77
2018-12-20T08:42:25.286Z,99867.55
2018-12-20T08:44:57.407Z,99859.58
2018-12-20T08:47:29.228Z,99853.97
2018-12-20T08:50:01.015Z,99855.36
2018-12-20T08:52:34.010Z,99843.77
2018-12-20T08:55:06.176Z,99848.39
2018-12-20T08:57:37.896Z,99841.87
2018-12-20T09:00:10.284Z,99844.22
2018-12-20T09:02:42.040Z,99839.58
2018-12-20T09:08:18.548Z,99831.42
2018-12-20T09:10:50.723Z,99832.34
2018-12-20T09:13:22.480Z,99824.22
2018-12-20T09:15:54.141Z,99822.84
2018-12-20T09:18:25.995Z,99821.92
2018-12-20T09:21:01.078Z,99809.52
2018-12-20T09:23:34.155Z,99812.03
2018-12-20T09:26:05.665Z,99811.49
2018-12-20T09:28:37.265Z,99810.02
2018-12-20T09:31:09.377Z,99805.96
2018-12-20T09:33:41.543Z,99805.50
2018-12-20T09:36:13.214Z,99804.44
2018-12-20T09:38:45.075Z,99800.05
2018-12-20T09:41:17.225Z,99797.33
2018-12-20T09:43:48.775Z,99791.86
2018-12-20T09:46:20.309Z,99797.39
2018-12-20T09:48:51.937Z,99799.59
2018-12-20T09:51:23.411Z,99792.53
2018-12-20T09:53:55.903Z,99791.95
2018-12-20T09:56:27.286Z,99794.64
2018-12-20T09:58:59.110Z,99792.74
2018-12-20T10:01:30.975Z,99795.05
2018-12-20T10:04:03.393Z,99793.11
2018-12-20T10:06:35.038Z,99798.17
2018-12-20T10:09:09.078Z,99791.25
2018-12-20T10:11:40.684Z,99792.83
2018-12-20T10:14:12.538Z,99792.95
2018-12-20T10:16:44.173Z,99789.70
2018-12-20T10:19:26.682Z,99785.17
2018-12-20T10:21:59.083Z,99783.08
2018-12-20T10:24:31.108Z,99786.03
2018-12-20T10:27:03.286Z,99784.59
2018-12-20T10:29:35.660Z,99786.66
2018-12-20T10:32:07.302Z,99782.69
2018-12-20T10:34:39.250Z,99779.89
2018-12-20T10:37:11.543Z,99782.23
2018-12-20T10:39:43.714Z,99785.36
2018-12-20T10:42:15.239Z,99785.48
2018-12-20T10:44:46.821Z,99783.78
2018-12-20T10:47:29.227Z,99779.52
2018-12-20T10:49:59.823Z,99780.02
2018-12-20T10:52:31.016Z,99786.42
2018-12-20T10:55:03.602Z,99786.81
2018-12-20T10:57:35.362Z,99787.76
2018-12-20T11:00:07.714Z,99783.38
2018-12-20T11:02:44.061Z,99782.23
2018-12-20T11:05:21.144Z,99784.17
2018-12-20T11:07:57.516Z,99786.36
2018-12-20T11:10:29.896Z,99783.02
2018-12-20T11:13:05.834Z,99779.48
2018-12-20T11:15:37.476Z,99786.75
2018-12-20T11:18:14.594Z,99783.73
2018-12-20T11:20:46.842Z,99791.63
2018-12-20T11:23:19.003Z,99786.29
2018-12-20T11:25:51.051Z,99783.28
2018-12-20T11:28:22.425Z,99776.76
2018-12-20T11:30:53.880Z,99782.84
2018-12-20T11:33:25.424Z,99781.13
2018-12-20T11:35:57.382Z,99780.40
2018-12-20T11:38:29.014Z,99786.36
2018-12-20T11:41:00.532Z,99784.99
2018-12-20T11:43:32.274Z,99787.33
2018-12-20T11:46:03.994Z,99786.66
2018-12-20T11:48:36.077Z,99792.61
2018-12-20T11:51:07.923Z,99783.62
2018-12-20T11:53:39.357Z,99791.91
2018-12-20T11:56:13.830Z,99788.51
2018-12-20T11:58:45.361Z,99791.58
2018-12-20T12:01:17.222Z,99791.97
2018-12-20T12:03:57.196Z,99795.95
2018-12-20T12:06:22.895Z,99788.56
2018-12-20T12:08:54.545Z,99797.26
2018-12-20T12:11:26.286Z,99796.09
2018-12-20T12:13:58.447Z,99800.13
2018-12-20T12:16:30.274Z,99798.43
2018-12-20T12:19:02.015Z,99800.80
2018-12-20T12:21:33.929Z,99800.42
2018-12-20T12:24:05.611Z,99801.27
2018-12-20T12:26:38.369Z,99803.09
2018-12-20T12:29:11.371Z,99808.86
2018-12-20T12:31:44.458Z,99807.55
2018-12-20T12:34:16.025Z,99808.46
2018-12-20T12:36:48.172Z,99802.45
2018-12-20T12:39:19.849Z,99813.45
2018-12-20T12:41:51.682Z,99808.66
2018-12-20T12:44:23.473Z,99814.84
2018-12-20T12:46:55.456Z,99817.91
2018-12-20T12:49:26.927Z,99820.92
2018-12-20T12:51:58.656Z,99822.59
2018-12-20T12:54:30.170Z,99821.92
2018-12-20T12:57:02.722Z,99817.15
2018-12-20T12:59:34.463Z,99825.04
2018-12-20T13:02:06.545Z,99817.20
2018-12-20T13:04:38.611Z,99825.20
2018-12-20T13:07:10.980Z,99826.06
2018-12-20T13:09:42.447Z,99833.05
2018-12-20T13:12:14.050Z,99838.12
2018-12-20T13:14:47.252Z,99836.77
2018-12-20T13:17:19.327Z,99845.02
2018-12-20T13:19:51.198Z,99842.52
2018-12-20T13:22:23.380Z,99850.36
2018-12-20T13:24:56.207Z,99850.27
2018-12-20T13:27:28.867Z,99854.13
2018-12-20T13:30:00.405Z,99859.80
2018-12-20T13:32:32.081Z,99857.75
2018-12-20T13:35:03.681Z,99852.88
2018-12-20T13:37:35.367Z,99849.81
2018-12-20T13:40:07.703Z,99849.81
2018-12-20T13:42:39.165Z,99855.66
2018-12-20T13:45:10.731Z,99854.89
2018-12-20T13:47:43.122Z,99856.85
2018-12-20T13:50:14.895Z,99857.50
2018-12-20T13:52:46.567Z,99856.85
2018-12-20T13:55:18.366Z,99856.59
2018-12-20T13:57:51.156Z,99861.81
2018-12-20T14:00:22.779Z,99857.09
2018-12-20T14:02:54.556Z,99861.41
2018-12-20T14:05:26.821Z,99859.06
2018-12-20T14:07:58.997Z,99858.00
2018-12-20T14:10:30.677Z,99854.28
2018-12-20T14:13:02.360Z,99860.67
2018-12-20T14:15:33.712Z,99854.65
2018-12-20T14:18:05.201Z,99855.75
2018-12-20T14:20:37.178Z,99857.86
2018-12-20T14:23:09.013Z,99861.41
2018-12-20T14:25:40.671Z,99851.53
2018-12-20T14:28:12.968Z,99851.22
2018-12-20T14:30:45.027Z,99855.75
2018-12-20T14:33:16.760Z,99854.69
2018-12-20T14:35:48.721Z,99857.96
2018-12-20T14:38:20.515Z,99862.16
2018-12-20T14:40:52.644Z,99866.94
2018-12-20T14:43:24.695Z,99868.64
2018-12-20T14:45:56.172Z,99870.05
2018-12-20T14:48:38.995Z,99872.81
2018-12-20T14:51:06.336Z,99872.97
2018-12-20T14:53:38.268Z,99875.38
2018-12-20T14:56:09.670Z,99878.17
2018-12-20T14:58:42.170Z,99876.52
2018-12-20T15:01:13.821Z,99878.80
2018-12-20T15:03:46.044Z,99883.02
2018-12-20T15:06:17.857Z,99878.89
2018-12-20T15:08:49.748Z,99880.41
2018-12-20T15:11:21.274Z,99880.09
2018-12-20T15:13:52.716Z,99876.12
2018-12-20T15:16:24.070Z,99881.08
2018-12-20T15:18:56.269Z,99878.28
2018-12-20T15:21:28.641Z,99883.44
2018-12-20T15:24:00.425Z,99877.91
2018-12-20T15:26:32.567Z,99875.88
2018-12-20T15:29:04.615Z,99883.78
2018-12-20T15:31:36.735Z,99881.39
2018-12-20T15:34:08.672Z,99881.14
2018-12-20T15:36:40.925Z,99882.65
2018-12-20T15:39:12.991Z,99887.00
2018-12-20T15:41:44.948Z,99879.35
2018-12-20T15:44:16.819Z,99889.58
2018-12-20T15:46:48.355Z,99882.41
2018-12-20T15:49:20.205Z,99884.41
2018-12-20T15:51:51.935Z,99876.52
2018-12-20T15:54:24.311Z,99885.55
2018-12-20T15:56:55.885Z,99880.51
2018-12-20T15:59:28.230Z,99878.36
2018-12-20T16:01:59.664Z,99885.06
2018-12-20T16:04:31.787Z,99878.64
2018-12-20T16:07:03.855Z,99877.75
2018-12-20T16:09:36.120Z,99877.86
2018-12-20T16:12:07.811Z,99879.61
2018-12-20T16:14:40.107Z,99878.39
2018-12-20T16:17:11.758Z,99880.19
2018-12-20T16:19:44.180Z,99873.44
2018-12-20T16:22:15.929Z,99880.75
2018-12-20T16:24:47.708Z,99880.91
2018-12-20T16:27:19.379Z,99879.11
2018-12-20T16:29:51.455Z,99882.78
2018-12-20T16:32:22.997Z,99880.54
2018-12-20T16:34:54.966Z,99883.42
2018-12-20T16:37:26.777Z,99885.73
2018-12-20T16:39:59.017Z,99883.91
2018-12-20T16:42:30.909Z,99880.63
2018-12-20T16:45:02.936Z,99878.87
2018-12-20T16:47:35.582Z,99875.05
2018-12-20T16:50:08.980Z,99877.95
2018-12-20T16:52:41.231Z,99876.44
2018-12-20T16:55:13.292Z,99877.53
2018-12-20T16:57:45.218Z,99874.72
2018-12-20T17:00:17.274Z,99877.77
2018-12-20T17:02:48.799Z,99880.80
2018-12-20T17:05:20.729Z,99882.78
2018-12-20T17:07:52.543Z,99878.12
2018-12-20T17:10:24.287Z,99882.39
2018-12-20T17:12:56.013Z,99878.12
2018-12-20T17:15:27.957Z,99878.69
2018-12-20T17:17:59.410Z,99882.51
2018-12-20T17:20:31.544Z,99879.09
2018-12-20T17:23:03.171Z,99877.98
2018-12-20T17:25:35.020Z,99869.66
2018-12-20T17:28:07.134Z,99870.18
2018-12-20T17:30:39.131Z,99871.07
2018-12-20T17:33:10.366Z,99870.56
2018-12-20T17:35:42.818Z,99867.14
2018-12-20T17:38:14.249Z,99867.44
2018-12-20T17:40:46.037Z,99865.84
2018-12-20T17:43:17.924Z,99858.45
2018-12-20T17:45:49.489Z,99863.16
2018-12-20T17:48:28.984Z,99860.79
2018-12-20T17:50:54.929Z,99856.70
2018-12-20T17:53:27.085Z,99857.67
2018-12-20T17:55:58.657Z,99861.05
2018-12-20T17:58:30.219Z,99862.77
2018-12-20T18:01:02.225Z,99860.87
2018-12-20T18:03:34.798Z,99852.21
2018-12-20T18:06:06.775Z,99856.08
2018-12-20T18:08:38.613Z,99856.85
2018-12-20T18:11:10.340Z,99857.19
2018-12-20T18:13:42.161Z,99850.32
2018-12-20T18:16:14.117Z,99857.30
2018-12-20T18:18:45.925Z,99848.28
2018-12-20T18:21:17.903Z,99844.08
2018-12-20T18:23:49.579Z,99849.05
2018-12-20T18:26:21.450Z,99847.97
2018-12-20T18:28:53.055Z,99850.53
2018-12-20T18:31:25.536Z,99851.28
2018-12-20T18:33:58.323Z,99846.16
2018-12-20T18:36:30.620Z,99850.13
2018-12-20T18:39:03.047Z,99840.74
2018-12-20T18:41:35.577Z,99842.15
2018-12-20T18:44:08.661Z,99843.00
2018-12-20T18:46:40.416Z,99836.28
2018-12-20T18:49:12.786Z,99845.78
2018-12-20T18:51:45.981Z,99840.25
2018-12-20T18:54:17.622Z,99838.23
2018-12-20T18:56:50.096Z,99838.64
2018-12-20T18:59:22.316Z,99834.78
2018-12-20T19:01:54.386Z,99834.78
2018-12-20T19:04:26.120Z,99824.13
2018-12-20T19:06:57.811Z,99823.93
2018-12-20T19:09:29.781Z,99827.72
2018-12-20T19:12:02.426Z,99817.33
2018-12-20T19:14:34.491Z,99819.25
2018-12-20T19:17:06.505Z,99823.66
2018-12-20T19:19:38.890Z,99822.77
2018-12-20T19:22:10.951Z,99818.50
2018-12-20T19:24:42.777Z,99822.80
2018-12-20T19:27:14.163Z,99825.36
2018-12-20T19:29:45.869Z,99825.49
2018-12-20T19:32:17.673Z,99823.75
2018-12-20T19:34:49.326Z,99823.96
2018-12-20T19:37:20.929Z,99822.90
2018-12-20T19:39:58.770Z,99825.09
2018-12-20T19:42:30.429Z,99818.50
2018-12-20T19:45:01.940Z,99812.68
2018-12-20T19:47:34.042Z,99822.19
2018-12-20T19:50:06.009Z,99815.77
2018-12-20T19:52:38.016Z,99811.08
2018-12-20T19:55:09.995Z,99806.19
2018-12-20T19:57:42.006Z,99812.72
2018-12-20T20:00:16.355Z,99813.81
2018-12-20T20:02:48.630Z,99809.38
2018-12-20T20:05:20.760Z,99810.27
2018-12-20T20:07:52.461Z,99809.14
2018-12-20T20:10:24.607Z,99803.50
2018-12-20T20:12:56.772Z,99806.95
2018-12-20T20:15:28.801Z,99806.41
2018-12-20T20:18:00.716Z,99809.89
2018-12-20T20:20:32.634Z,99807.36
2018-12-20T20:23:04.319Z,99812.25
2018-12-20T20:25:36.474Z,99809.78
2018-12-20T20:28:08.240Z,99805.45
2018-12-20T20:30:40.076Z,99802.41
2018-12-20T20:33:12.157Z,99803.73
2018-12-20T20:35:44.437Z,99804.36
2018-12-20T20:38:15.913Z,99796.80
2018-12-20T20:40:47.975Z,99799.98
2018-12-20T20:43:19.712Z,99801.18
2018-12-20T20:45:51.822Z,99801.31
2018-12-20T20:48:23.907Z,99800.25
2018-12-20T20:50:56.297Z,99802.64
2018-12-20T20:53:27.982Z,99805.72
2018-12-20T20:55:59.962Z,99801.52
2018-12-20T20:58:32.596Z,99802.63
2018-12-20T21:01:04.537Z,99797.30
2018-12-20T21:03:36.858Z,99799.11
2018-12-20T21:06:08.618Z,99801.91
2018-12-20T21:08:40.470Z,99798.99
2018-12-20T21:11:12.264Z,99801.02
2018-12-20T21:13:44.214Z,99800.20
2018-12-20T21:16:16.071Z,99795.27
2018-12-20T21:18:47.765Z,99801.34
2018-12-20T21:21:19.815Z,99803.42
2018-12-20T21:23:51.841Z,99805.29
2018-12-20T21:26:23.892Z,99809.44
2018-12-20T21:28:55.660Z,99801.75
2018-12-20T21:31:27.344Z,99811.33
2018-12-20T21:33:59.496Z,99809.46
2018-12-20T21:36:31.616Z,99808.73
2018-12-20T21:39:04.817Z,99802.22
2018-12-20T21:41:36.961Z,99801.78
2018-12-20T21:44:08.582Z,99801.40
2018-12-20T21:46:40.744Z,99803.23
2018-12-20T21:49:13.043Z,99804.12
2018-12-20T21:51:44.748Z,99805.57
2018-12-20T21:54:16.304Z,99806.66
2018-12-20T21:56:48.283Z,99806.10
2018-12-20T21:59:21.110Z,99807.14
2018-12-20T22:01:53.217Z,99811.53
2018-12-20T22:04:25.766Z,99805.84
2018-12-20T22:06:57.298Z,99802.75
2018-12-20T22:09:28.913Z,99809.93
2018-12-20T22:12:00.916Z,99813.16
2018-12-20T22:14:32.426Z,99814.03
2018-12-20T22:17:04.370Z,99807.26
2018-12-20T22:19:36.115Z,99807.29
2018-12-20T22:22:07.778Z,99805.99
2018-12-20T22:24:39.316Z,99809.97
2018-12-20T22:27:11.349Z,99803.75
2018-12-20T22:29:43.766Z,99803.91
2018-12-20T22:32:15.435Z,99803.98
2018-12-20T22:34:47.533Z,99805.67
2018-12-20T22:37:19.454Z,99809.77
2018-12-20T22:39:51.077Z,99807.41
2018-12-20T22:42:22.937Z,99812.63
2018-12-20T22:44:54.833Z,99807.56
2018-12-20T22:47:26.546Z,99802.55
2018-12-20T22:49:58.113Z,99804.67
2018-12-20T22:52:29.759Z,99807.27
2018-12-20T22:55:01.567Z,99807.78
2018-12-20T22:57:33.474Z,99820.89
2018-12-20T23:00:06.455Z,99821.63
2018-12-20T23:02:38.703Z,99825.66
2018-12-20T23:05:10.886Z,99823.57
2018-12-20T23:07:42.991Z,99822.38
2018-12-20T23:10:16.008Z,99827.13
2018-12-20T23:12:47.999Z,99824.78
2018-12-20T23:15:19.522Z,99828.53
2018-12-20T23:17:51.245Z,99833.72
2018-12-20T23:20:22.835Z,99829.96
2018-12-20T23:22:54.591Z,99829.29
2018-12-20T23:25:26.431Z,99825.80
2018-12-20T23:27:59.167Z,99828.72
2018-12-20T23:30:30.895Z,99830.48
2018-12-20T23:33:02.640Z,99835.61
2018-12-20T23:35:34.822Z,99845.15
2018-12-20T23:38:06.661Z,99843.44
2018-12-20T23:40:38.212Z,99839.79
2018-12-20T23:43:10.063Z,99844.19
2018-12-20T23:45:41.966Z,99847.42
2018-12-20T23:48:13.692Z,99845.42
2018-12-20T23:50:45.501Z,99853.80
2018-12-20T23:53:17.218Z,99850.88
2018-12-20T23:55:48.683Z,99849.19
2018-12-20T23:58:20.758Z,99854.06
